sensor_id;sensor_type;location;lat;lon;timestamp;P1;durP1;ratioP1;P2;durP2;ratioP2
71836;SDS011;59686;51.716;7.016;2022-12-29T00:00:49;3.03;;;2.10;;
71836;SDS011;59686;51.716;7.016;2022-12-29T00:03:14;2.47;;;1.93;;
71836;SDS011;59686;51.716;7.016;2022-12-29T00:05:40;2.43;;;2.10;;
71836;SDS011;59686;51.716;7.016;2022-12-29T00:08:06;2.17;;;1.73;;
71836;SDS011;59686;51.716;7.016;2022-12-29T00:10:32;2.47;;;2.10;;
71836;SDS011;59686;51.716;7.016;2022-12-29T00:12:58;2.57;;;1.90;;
71836;SDS011;59686;51.716;7.016;2022-12-29T00:15:54;1.93;;;1.73;;
71836;SDS011;59686;51.716;7.016;2022-12-29T00:18:20;1.70;;;1.50;;
71836;SDS011;59686;51.716;7.016;2022-12-29T00:20:45;3.70;;;2.00;;
71836;SDS011;59686;51.716;7.016;2022-12-29T00:23:29;2.73;;;1.63;;
71836;SDS011;59686;51.716;7.016;2022-12-29T00:26:13;2.47;;;1.67;;
71836;SDS011;59686;51.716;7.016;2022-12-29T00:29:06;2.83;;;1.63;;
71836;SDS011;59686;51.716;7.016;2022-12-29T00:31:52;3.47;;;1.60;;
71836;SDS011;59686;51.716;7.016;2022-12-29T00:34:46;1.90;;;1.57;;
71836;SDS011;59686;51.716;7.016;2022-12-29T00:37:30;3.70;;;1.80;;
71836;SDS011;59686;51.716;7.016;2022-12-29T00:40:15;2.40;;;1.60;;
71836;SDS011;59686;51.716;7.016;2022-12-29T00:42:59;2.50;;;1.67;;
71836;SDS011;59686;51.716;7.016;2022-12-29T00:45:43;3.03;;;1.67;;
71836;SDS011;59686;51.716;7.016;2022-12-29T00:48:09;2.00;;;1.70;;
71836;SDS011;59686;51.716;7.016;2022-12-29T00:50:35;1.73;;;1.63;;
71836;SDS011;59686;51.716;7.016;2022-12-29T00:53:00;2.20;;;1.80;;
71836;SDS011;59686;51.716;7.016;2022-12-29T00:55:26;1.60;;;1.50;;
71836;SDS011;59686;51.716;7.016;2022-12-29T00:57:51;1.50;;;1.40;;
71836;SDS011;59686;51.716;7.016;2022-12-29T01:00:17;4.00;;;1.87;;
71836;SDS011;59686;51.716;7.016;2022-12-29T01:02:43;2.00;;;1.40;;
71836;SDS011;59686;51.716;7.016;2022-12-29T01:05:08;1.67;;;1.40;;
71836;SDS011;59686;51.716;7.016;2022-12-29T01:07:34;1.97;;;1.30;;
71836;SDS011;59686;51.716;7.016;2022-12-29T01:10:00;1.47;;;1.30;;
71836;SDS011;59686;51.716;7.016;2022-12-29T01:12:37;1.97;;;1.20;;
71836;SDS011;59686;51.716;7.016;2022-12-29T01:15:06;3.10;;;1.40;;
71836;SDS011;59686;51.716;7.016;2022-12-29T01:17:34;1.77;;;1.47;;
71836;SDS011;59686;51.716;7.016;2022-12-29T01:20:00;1.20;;;1.10;;
71836;SDS011;59686;51.716;7.016;2022-12-29T01:22:26;1.90;;;1.60;;
71836;SDS011;59686;51.716;7.016;2022-12-29T01:24:52;2.37;;;1.30;;
71836;SDS011;59686;51.716;7.016;2022-12-29T01:27:17;2.33;;;1.23;;
71836;SDS011;59686;51.716;7.016;2022-12-29T01:29:43;1.40;;;1.20;;
71836;SDS011;59686;51.716;7.016;2022-12-29T01:32:08;3.90;;;1.30;;
71836;SDS011;59686;51.716;7.016;2022-12-29T01:37:07;1.30;;;1.20;;
71836;SDS011;59686;51.716;7.016;2022-12-29T01:39:32;1.47;;;1.30;;
71836;SDS011;59686;51.716;7.016;2022-12-29T01:41:58;1.40;;;1.30;;
71836;SDS011;59686;51.716;7.016;2022-12-29T01:47:30;1.30;;;1.20;;
71836;SDS011;59686;51.716;7.016;2022-12-29T01:50:10;1.37;;;1.03;;
71836;SDS011;59686;51.716;7.016;2022-12-29T01:52:42;1.20;;;1.07;;
71836;SDS011;59686;51.716;7.016;2022-12-29T01:55:32;1.30;;;1.10;;
71836;SDS011;59686;51.716;7.016;2022-12-29T01:58:02;0.97;;;0.90;;
71836;SDS011;59686;51.716;7.016;2022-12-29T02:00:30;1.30;;;1.20;;
71836;SDS011;59686;51.716;7.016;2022-12-29T02:02:56;2.13;;;1.00;;
71836;SDS011;59686;51.716;7.016;2022-12-29T02:05:27;1.93;;;1.10;;
71836;SDS011;59686;51.716;7.016;2022-12-29T02:08:01;1.33;;;1.10;;
71836;SDS011;59686;51.716;7.016;2022-12-29T02:10:28;1.60;;;0.97;;
71836;SDS011;59686;51.716;7.016;2022-12-29T02:12:56;1.27;;;1.07;;
71836;SDS011;59686;51.716;7.016;2022-12-29T02:15:24;1.50;;;1.10;;
71836;SDS011;59686;51.716;7.016;2022-12-29T02:18:29;1.60;;;1.10;;
71836;SDS011;59686;51.716;7.016;2022-12-29T02:40:57;2.23;;;1.10;;
71836;SDS011;59686;51.716;7.016;2022-12-29T02:43:59;1.73;;;1.17;;
71836;SDS011;59686;51.716;7.016;2022-12-29T02:46:42;1.40;;;1.07;;
71836;SDS011;59686;51.716;7.016;2022-12-29T02:49:40;1.37;;;1.07;;
71836;SDS011;59686;51.716;7.016;2022-12-29T02:52:18;1.27;;;1.00;;
71836;SDS011;59686;51.716;7.016;2022-12-29T02:54:48;1.60;;;1.00;;
71836;SDS011;59686;51.716;7.016;2022-12-29T02:57:27;2.37;;;1.07;;
71836;SDS011;59686;51.716;7.016;2022-12-29T03:00:10;1.70;;;1.00;;
71836;SDS011;59686;51.716;7.016;2022-12-29T03:08:48;1.57;;;1.10;;
71836;SDS011;59686;51.716;7.016;2022-12-29T03:11:20;1.60;;;1.30;;
71836;SDS011;59686;51.716;7.016;2022-12-29T03:14:14;2.00;;;0.97;;
71836;SDS011;59686;51.716;7.016;2022-12-29T03:17:24;1.53;;;1.00;;
71836;SDS011;59686;51.716;7.016;2022-12-29T03:20:01;1.33;;;0.97;;
71836;SDS011;59686;51.716;7.016;2022-12-29T03:22:32;1.13;;;0.87;;
71836;SDS011;59686;51.716;7.016;2022-12-29T03:27:31;2.97;;;1.00;;
71836;SDS011;59686;51.716;7.016;2022-12-29T03:30:02;1.13;;;0.93;;
71836;SDS011;59686;51.716;7.016;2022-12-29T03:32:36;1.77;;;1.00;;
71836;SDS011;59686;51.716;7.016;2022-12-29T03:35:07;1.70;;;1.00;;
71836;SDS011;59686;51.716;7.016;2022-12-29T03:37:38;2.30;;;0.90;;
71836;SDS011;59686;51.716;7.016;2022-12-29T03:40:08;1.90;;;1.10;;
71836;SDS011;59686;51.716;7.016;2022-12-29T03:42:35;3.17;;;1.10;;
71836;SDS011;59686;51.716;7.016;2022-12-29T03:45:02;2.90;;;1.10;;
71836;SDS011;59686;51.716;7.016;2022-12-29T03:47:30;2.87;;;1.10;;
71836;SDS011;59686;51.716;7.016;2022-12-29T03:49:56;0.93;;;0.90;;
71836;SDS011;59686;51.716;7.016;2022-12-29T03:52:22;3.43;;;1.37;;
71836;SDS011;59686;51.716;7.016;2022-12-29T03:54:47;1.80;;;1.30;;
71836;SDS011;59686;51.716;7.016;2022-12-29T03:57:13;2.63;;;1.23;;
71836;SDS011;59686;51.716;7.016;2022-12-29T03:59:39;2.43;;;1.43;;
71836;SDS011;59686;51.716;7.016;2022-12-29T04:02:04;4.93;;;1.40;;
71836;SDS011;59686;51.716;7.016;2022-12-29T04:04:30;4.17;;;1.50;;
71836;SDS011;59686;51.716;7.016;2022-12-29T04:06:55;2.20;;;1.23;;
71836;SDS011;59686;51.716;7.016;2022-12-29T04:09:21;3.47;;;1.40;;
71836;SDS011;59686;51.716;7.016;2022-12-29T04:11:47;1.43;;;1.10;;
71836;SDS011;59686;51.716;7.016;2022-12-29T04:14:12;1.83;;;1.30;;
71836;SDS011;59686;51.716;7.016;2022-12-29T04:16:38;2.30;;;1.27;;
71836;SDS011;59686;51.716;7.016;2022-12-29T04:19:07;3.13;;;1.70;;
71836;SDS011;59686;51.716;7.016;2022-12-29T04:21:35;1.10;;;0.90;;
71836;SDS011;59686;51.716;7.016;2022-12-29T04:24:01;1.70;;;1.10;;
71836;SDS011;59686;51.716;7.016;2022-12-29T04:26:26;1.83;;;1.10;;
71836;SDS011;59686;51.716;7.016;2022-12-29T04:28:52;2.97;;;1.27;;
71836;SDS011;59686;51.716;7.016;2022-12-29T04:31:17;1.87;;;1.10;;
71836;SDS011;59686;51.716;7.016;2022-12-29T04:33:43;2.90;;;1.27;;
71836;SDS011;59686;51.716;7.016;2022-12-29T04:36:09;1.20;;;1.10;;
71836;SDS011;59686;51.716;7.016;2022-12-29T04:38:34;2.00;;;1.20;;
71836;SDS011;59686;51.716;7.016;2022-12-29T04:41:00;2.47;;;1.50;;
71836;SDS011;59686;51.716;7.016;2022-12-29T04:43:26;1.87;;;1.23;;
71836;SDS011;59686;51.716;7.016;2022-12-29T04:45:52;1.60;;;1.10;;
71836;SDS011;59686;51.716;7.016;2022-12-29T04:48:18;4.43;;;1.20;;
71836;SDS011;59686;51.716;7.016;2022-12-29T04:50:46;1.30;;;1.00;;
71836;SDS011;59686;51.716;7.016;2022-12-29T04:53:13;2.60;;;1.17;;
71836;SDS011;59686;51.716;7.016;2022-12-29T04:55:39;3.47;;;1.00;;
71836;SDS011;59686;51.716;7.016;2022-12-29T04:58:04;1.90;;;0.80;;
71836;SDS011;59686;51.716;7.016;2022-12-29T05:00:30;2.40;;;0.90;;
71836;SDS011;59686;51.716;7.016;2022-12-29T05:02:56;1.17;;;0.90;;
71836;SDS011;59686;51.716;7.016;2022-12-29T05:05:21;1.17;;;0.63;;
71836;SDS011;59686;51.716;7.016;2022-12-29T05:07:47;1.57;;;0.70;;
71836;SDS011;59686;51.716;7.016;2022-12-29T05:12:42;1.57;;;0.83;;
71836;SDS011;59686;51.716;7.016;2022-12-29T05:15:09;1.47;;;0.60;;
71836;SDS011;59686;51.716;7.016;2022-12-29T05:17:35;3.00;;;0.67;;
71836;SDS011;59686;51.716;7.016;2022-12-29T05:20:02;1.20;;;0.80;;
71836;SDS011;59686;51.716;7.016;2022-12-29T05:22:29;1.67;;;0.57;;
71836;SDS011;59686;51.716;7.016;2022-12-29T05:24:55;1.57;;;0.53;;
71836;SDS011;59686;51.716;7.016;2022-12-29T05:27:21;1.80;;;0.73;;
71836;SDS011;59686;51.716;7.016;2022-12-29T05:29:46;3.50;;;0.63;;
71836;SDS011;59686;51.716;7.016;2022-12-29T05:32:12;1.50;;;0.70;;
71836;SDS011;59686;51.716;7.016;2022-12-29T05:34:55;1.40;;;0.70;;
71836;SDS011;59686;51.716;7.016;2022-12-29T05:37:20;1.53;;;0.60;;
71836;SDS011;59686;51.716;7.016;2022-12-29T05:39:46;1.47;;;0.63;;
71836;SDS011;59686;51.716;7.016;2022-12-29T05:42:11;1.20;;;0.60;;
71836;SDS011;59686;51.716;7.016;2022-12-29T05:44:37;2.10;;;0.60;;
71836;SDS011;59686;51.716;7.016;2022-12-29T05:47:03;2.47;;;0.80;;
71836;SDS011;59686;51.716;7.016;2022-12-29T05:49:39;0.90;;;0.60;;
71836;SDS011;59686;51.716;7.016;2022-12-29T05:52:04;1.13;;;0.50;;
71836;SDS011;59686;51.716;7.016;2022-12-29T05:54:30;1.13;;;0.80;;
71836;SDS011;59686;51.716;7.016;2022-12-29T05:56:55;2.30;;;0.77;;
71836;SDS011;59686;51.716;7.016;2022-12-29T05:59:21;2.30;;;0.67;;
71836;SDS011;59686;51.716;7.016;2022-12-29T06:01:47;0.93;;;0.50;;
71836;SDS011;59686;51.716;7.016;2022-12-29T06:04:12;1.37;;;0.63;;
71836;SDS011;59686;51.716;7.016;2022-12-29T06:06:38;2.57;;;0.53;;
71836;SDS011;59686;51.716;7.016;2022-12-29T06:09:04;1.23;;;0.70;;
71836;SDS011;59686;51.716;7.016;2022-12-29T06:11:37;1.77;;;0.53;;
71836;SDS011;59686;51.716;7.016;2022-12-29T06:14:02;2.30;;;0.80;;
71836;SDS011;59686;51.716;7.016;2022-12-29T06:16:28;1.90;;;0.90;;
71836;SDS011;59686;51.716;7.016;2022-12-29T06:18:54;3.70;;;0.70;;
71836;SDS011;59686;51.716;7.016;2022-12-29T06:21:19;1.27;;;0.70;;
71836;SDS011;59686;51.716;7.016;2022-12-29T06:23:45;2.17;;;0.63;;
71836;SDS011;59686;51.716;7.016;2022-12-29T06:26:11;2.47;;;0.90;;
71836;SDS011;59686;51.716;7.016;2022-12-29T06:28:36;2.07;;;0.73;;
71836;SDS011;59686;51.716;7.016;2022-12-29T06:31:02;1.70;;;0.80;;
71836;SDS011;59686;51.716;7.016;2022-12-29T06:33:28;2.93;;;0.90;;
71836;SDS011;59686;51.716;7.016;2022-12-29T06:35:54;2.30;;;0.87;;
71836;SDS011;59686;51.716;7.016;2022-12-29T06:38:20;2.23;;;0.90;;
71836;SDS011;59686;51.716;7.016;2022-12-29T06:40:46;4.33;;;1.00;;
71836;SDS011;59686;51.716;7.016;2022-12-29T06:43:11;2.07;;;0.93;;
71836;SDS011;59686;51.716;7.016;2022-12-29T06:45:41;1.43;;;0.97;;
71836;SDS011;59686;51.716;7.016;2022-12-29T06:48:08;2.90;;;1.30;;
71836;SDS011;59686;51.716;7.016;2022-12-29T06:50:33;1.43;;;0.90;;
71836;SDS011;59686;51.716;7.016;2022-12-29T06:52:59;3.93;;;1.27;;
71836;SDS011;59686;51.716;7.016;2022-12-29T06:55:25;2.63;;;1.03;;
71836;SDS011;59686;51.716;7.016;2022-12-29T06:57:54;2.20;;;1.00;;
71836;SDS011;59686;51.716;7.016;2022-12-29T07:00:20;3.03;;;1.27;;
71836;SDS011;59686;51.716;7.016;2022-12-29T07:02:46;1.80;;;0.90;;
71836;SDS011;59686;51.716;7.016;2022-12-29T07:05:13;3.13;;;1.00;;
71836;SDS011;59686;51.716;7.016;2022-12-29T07:07:38;3.90;;;1.03;;
71836;SDS011;59686;51.716;7.016;2022-12-29T07:10:04;1.87;;;1.00;;
71836;SDS011;59686;51.716;7.016;2022-12-29T07:12:30;3.47;;;1.33;;
71836;SDS011;59686;51.716;7.016;2022-12-29T07:14:56;4.33;;;1.20;;
71836;SDS011;59686;51.716;7.016;2022-12-29T07:17:28;2.80;;;1.00;;
71836;SDS011;59686;51.716;7.016;2022-12-29T07:19:53;3.77;;;1.20;;
71836;SDS011;59686;51.716;7.016;2022-12-29T07:22:19;5.47;;;1.50;;
71836;SDS011;59686;51.716;7.016;2022-12-29T07:24:47;3.00;;;1.20;;
71836;SDS011;59686;51.716;7.016;2022-12-29T07:27:12;3.10;;;1.10;;
71836;SDS011;59686;51.716;7.016;2022-12-29T07:29:38;4.80;;;1.20;;
71836;SDS011;59686;51.716;7.016;2022-12-29T07:32:04;2.20;;;1.00;;
71836;SDS011;59686;51.716;7.016;2022-12-29T07:34:30;3.63;;;1.23;;
71836;SDS011;59686;51.716;7.016;2022-12-29T07:36:55;2.73;;;0.90;;
71836;SDS011;59686;51.716;7.016;2022-12-29T07:39:21;2.97;;;1.20;;
71836;SDS011;59686;51.716;7.016;2022-12-29T07:41:46;3.53;;;1.30;;
71836;SDS011;59686;51.716;7.016;2022-12-29T07:44:12;3.13;;;1.20;;
71836;SDS011;59686;51.716;7.016;2022-12-29T07:46:38;2.63;;;0.90;;
71836;SDS011;59686;51.716;7.016;2022-12-29T07:49:03;1.80;;;1.10;;
71836;SDS011;59686;51.716;7.016;2022-12-29T07:51:29;2.93;;;1.10;;
71836;SDS011;59686;51.716;7.016;2022-12-29T07:53:55;3.13;;;0.93;;
71836;SDS011;59686;51.716;7.016;2022-12-29T07:56:22;2.67;;;1.23;;
71836;SDS011;59686;51.716;7.016;2022-12-29T07:58:48;2.67;;;0.90;;
71836;SDS011;59686;51.716;7.016;2022-12-29T08:01:14;1.93;;;1.10;;
71836;SDS011;59686;51.716;7.016;2022-12-29T08:03:39;1.60;;;1.10;;
71836;SDS011;59686;51.716;7.016;2022-12-29T08:06:08;1.77;;;1.20;;
71836;SDS011;59686;51.716;7.016;2022-12-29T08:08:34;2.57;;;1.10;;
71836;SDS011;59686;51.716;7.016;2022-12-29T08:11:00;4.60;;;1.23;;
71836;SDS011;59686;51.716;7.016;2022-12-29T08:13:26;3.20;;;0.90;;
71836;SDS011;59686;51.716;7.016;2022-12-29T08:15:52;6.30;;;1.17;;
71836;SDS011;59686;51.716;7.016;2022-12-29T08:18:17;3.60;;;1.23;;
71836;SDS011;59686;51.716;7.016;2022-12-29T08:20:46;3.93;;;1.30;;
71836;SDS011;59686;51.716;7.016;2022-12-29T08:23:12;3.73;;;1.10;;
71836;SDS011;59686;51.716;7.016;2022-12-29T08:25:38;3.73;;;1.33;;
71836;SDS011;59686;51.716;7.016;2022-12-29T08:28:03;3.27;;;1.10;;
71836;SDS011;59686;51.716;7.016;2022-12-29T08:30:42;4.30;;;1.40;;
71836;SDS011;59686;51.716;7.016;2022-12-29T08:33:08;4.67;;;1.23;;
71836;SDS011;59686;51.716;7.016;2022-12-29T08:35:33;2.60;;;1.20;;
71836;SDS011;59686;51.716;7.016;2022-12-29T08:37:59;4.90;;;1.20;;
71836;SDS011;59686;51.716;7.016;2022-12-29T08:40:25;3.40;;;1.20;;
71836;SDS011;59686;51.716;7.016;2022-12-29T08:42:50;5.90;;;1.40;;
71836;SDS011;59686;51.716;7.016;2022-12-29T08:45:16;3.50;;;1.17;;
71836;SDS011;59686;51.716;7.016;2022-12-29T08:47:43;3.80;;;1.37;;
71836;SDS011;59686;51.716;7.016;2022-12-29T08:50:08;2.87;;;1.10;;
71836;SDS011;59686;51.716;7.016;2022-12-29T08:52:34;4.67;;;1.43;;
71836;SDS011;59686;51.716;7.016;2022-12-29T08:54:59;8.47;;;1.90;;
71836;SDS011;59686;51.716;7.016;2022-12-29T08:57:25;5.10;;;1.53;;
71836;SDS011;59686;51.716;7.016;2022-12-29T08:59:51;6.50;;;1.73;;
71836;SDS011;59686;51.716;7.016;2022-12-29T09:02:16;4.23;;;1.40;;
71836;SDS011;59686;51.716;7.016;2022-12-29T09:04:42;3.67;;;1.23;;
71836;SDS011;59686;51.716;7.016;2022-12-29T09:07:08;6.37;;;1.53;;
71836;SDS011;59686;51.716;7.016;2022-12-29T09:09:33;4.47;;;1.40;;
71836;SDS011;59686;51.716;7.016;2022-12-29T09:11:59;4.37;;;1.50;;
71836;SDS011;59686;51.716;7.016;2022-12-29T09:14:25;7.10;;;1.80;;
71836;SDS011;59686;51.716;7.016;2022-12-29T09:16:51;6.50;;;1.50;;
71836;SDS011;59686;51.716;7.016;2022-12-29T09:19:35;4.13;;;1.33;;
71836;SDS011;59686;51.716;7.016;2022-12-29T09:22:03;6.40;;;1.40;;
71836;SDS011;59686;51.716;7.016;2022-12-29T09:24:29;4.43;;;1.30;;
71836;SDS011;59686;51.716;7.016;2022-12-29T09:26:54;5.27;;;1.43;;
71836;SDS011;59686;51.716;7.016;2022-12-29T09:29:20;7.27;;;1.43;;
71836;SDS011;59686;51.716;7.016;2022-12-29T09:31:46;6.17;;;2.00;;
71836;SDS011;59686;51.716;7.016;2022-12-29T09:34:11;3.23;;;1.23;;
71836;SDS011;59686;51.716;7.016;2022-12-29T09:36:37;6.37;;;1.40;;
71836;SDS011;59686;51.716;7.016;2022-12-29T09:39:03;5.73;;;1.60;;
71836;SDS011;59686;51.716;7.016;2022-12-29T09:44:12;6.57;;;1.57;;
71836;SDS011;59686;51.716;7.016;2022-12-29T09:46:49;3.50;;;1.30;;
71836;SDS011;59686;51.716;7.016;2022-12-29T09:49:37;4.00;;;1.50;;
71836;SDS011;59686;51.716;7.016;2022-12-29T09:52:13;5.87;;;1.40;;
71836;SDS011;59686;51.716;7.016;2022-12-29T09:54:54;4.47;;;1.60;;
71836;SDS011;59686;51.716;7.016;2022-12-29T10:00:03;4.33;;;1.60;;
71836;SDS011;59686;51.716;7.016;2022-12-29T10:02:37;4.70;;;1.70;;
71836;SDS011;59686;51.716;7.016;2022-12-29T10:05:13;5.13;;;1.40;;
71836;SDS011;59686;51.716;7.016;2022-12-29T10:18:06;6.20;;;1.70;;
71836;SDS011;59686;51.716;7.016;2022-12-29T10:20:54;5.77;;;1.60;;
71836;SDS011;59686;51.716;7.016;2022-12-29T10:23:40;5.20;;;1.30;;
71836;SDS011;59686;51.716;7.016;2022-12-29T10:26:12;6.50;;;1.40;;
71836;SDS011;59686;51.716;7.016;2022-12-29T10:29:16;3.90;;;1.30;;
71836;SDS011;59686;51.716;7.016;2022-12-29T10:31:52;7.67;;;1.20;;
71836;SDS011;59686;51.716;7.016;2022-12-29T10:34:26;5.53;;;1.20;;
71836;SDS011;59686;51.716;7.016;2022-12-29T10:40:13;3.93;;;1.60;;
71836;SDS011;59686;51.716;7.016;2022-12-29T10:42:50;3.53;;;1.40;;
71836;SDS011;59686;51.716;7.016;2022-12-29T10:45:19;5.70;;;1.53;;
71836;SDS011;59686;51.716;7.016;2022-12-29T10:47:52;9.20;;;1.67;;
71836;SDS011;59686;51.716;7.016;2022-12-29T10:54:02;4.40;;;1.60;;
71836;SDS011;59686;51.716;7.016;2022-12-29T10:59:13;6.40;;;1.30;;
71836;SDS011;59686;51.716;7.016;2022-12-29T11:04:57;4.10;;;1.30;;
71836;SDS011;59686;51.716;7.016;2022-12-29T11:07:29;6.80;;;1.57;;
71836;SDS011;59686;51.716;7.016;2022-12-29T11:09:55;6.77;;;1.70;;
71836;SDS011;59686;51.716;7.016;2022-12-29T11:12:40;3.67;;;1.57;;
71836;SDS011;59686;51.716;7.016;2022-12-29T11:17:49;3.60;;;1.20;;
71836;SDS011;59686;51.716;7.016;2022-12-29T11:23:28;4.37;;;1.40;;
71836;SDS011;59686;51.716;7.016;2022-12-29T11:26:18;4.80;;;1.10;;
71836;SDS011;59686;51.716;7.016;2022-12-29T11:28:47;7.07;;;1.77;;
71836;SDS011;59686;51.716;7.016;2022-12-29T11:31:30;3.97;;;1.50;;
71836;SDS011;59686;51.716;7.016;2022-12-29T11:34:05;6.03;;;1.67;;
71836;SDS011;59686;51.716;7.016;2022-12-29T11:36:32;7.03;;;1.57;;
71836;SDS011;59686;51.716;7.016;2022-12-29T11:38:59;3.30;;;1.33;;
71836;SDS011;59686;51.716;7.016;2022-12-29T11:41:27;7.33;;;1.63;;
71836;SDS011;59686;51.716;7.016;2022-12-29T11:44:02;4.53;;;1.13;;
71836;SDS011;59686;51.716;7.016;2022-12-29T11:46:31;5.03;;;1.60;;
71836;SDS011;59686;51.716;7.016;2022-12-29T11:48:59;9.10;;;1.60;;
71836;SDS011;59686;51.716;7.016;2022-12-29T11:51:47;5.33;;;1.80;;
71836;SDS011;59686;51.716;7.016;2022-12-29T11:54:21;4.87;;;1.30;;
71836;SDS011;59686;51.716;7.016;2022-12-29T11:56:56;4.27;;;1.50;;
71836;SDS011;59686;51.716;7.016;2022-12-29T12:02:17;5.67;;;1.40;;
71836;SDS011;59686;51.716;7.016;2022-12-29T12:04:56;4.60;;;1.40;;
71836;SDS011;59686;51.716;7.016;2022-12-29T12:10:32;5.63;;;1.50;;
71836;SDS011;59686;51.716;7.016;2022-12-29T12:13:17;6.67;;;1.70;;
71836;SDS011;59686;51.716;7.016;2022-12-29T12:15:44;5.03;;;1.50;;
71836;SDS011;59686;51.716;7.016;2022-12-29T12:18:17;7.03;;;1.30;;
71836;SDS011;59686;51.716;7.016;2022-12-29T12:20:51;6.00;;;1.50;;
71836;SDS011;59686;51.716;7.016;2022-12-29T12:23:21;5.33;;;1.50;;
71836;SDS011;59686;51.716;7.016;2022-12-29T12:25:54;5.30;;;1.57;;
71836;SDS011;59686;51.716;7.016;2022-12-29T12:28:33;4.47;;;1.40;;
71836;SDS011;59686;51.716;7.016;2022-12-29T12:34:13;5.77;;;1.50;;
71836;SDS011;59686;51.716;7.016;2022-12-29T12:56:37;4.93;;;1.50;;
71836;SDS011;59686;51.716;7.016;2022-12-29T13:04:53;7.97;;;1.93;;
71836;SDS011;59686;51.716;7.016;2022-12-29T13:10:42;10.97;;;1.97;;
71836;SDS011;59686;51.716;7.016;2022-12-29T13:19:02;3.53;;;1.40;;
71836;SDS011;59686;51.716;7.016;2022-12-29T13:32:12;6.07;;;1.80;;
71836;SDS011;59686;51.716;7.016;2022-12-29T13:37:55;5.73;;;1.70;;
71836;SDS011;59686;51.716;7.016;2022-12-29T13:40:31;6.63;;;1.93;;
71836;SDS011;59686;51.716;7.016;2022-12-29T13:42:59;5.33;;;1.80;;
71836;SDS011;59686;51.716;7.016;2022-12-29T13:45:28;5.03;;;1.80;;
71836;SDS011;59686;51.716;7.016;2022-12-29T13:51:17;3.97;;;1.60;;
71836;SDS011;59686;51.716;7.016;2022-12-29T13:53:56;7.70;;;2.00;;
71836;SDS011;59686;51.716;7.016;2022-12-29T13:56:40;5.73;;;1.90;;
71836;SDS011;59686;51.716;7.016;2022-12-29T14:04:35;6.03;;;2.40;;
71836;SDS011;59686;51.716;7.016;2022-12-29T14:07:19;5.13;;;1.57;;
71836;SDS011;59686;51.716;7.016;2022-12-29T14:09:58;7.37;;;1.70;;
71836;SDS011;59686;51.716;7.016;2022-12-29T14:15:06;5.87;;;1.83;;
71836;SDS011;59686;51.716;7.016;2022-12-29T14:17:59;8.47;;;2.10;;
71836;SDS011;59686;51.716;7.016;2022-12-29T14:20:33;7.23;;;2.00;;
71836;SDS011;59686;51.716;7.016;2022-12-29T14:28:42;7.23;;;1.97;;
71836;SDS011;59686;51.716;7.016;2022-12-29T14:36:39;6.40;;;2.00;;
71836;SDS011;59686;51.716;7.016;2022-12-29T14:47:37;5.13;;;1.67;;
71836;SDS011;59686;51.716;7.016;2022-12-29T14:50:07;5.70;;;1.70;;
71836;SDS011;59686;51.716;7.016;2022-12-29T14:52:53;4.97;;;1.60;;
71836;SDS011;59686;51.716;7.016;2022-12-29T14:55:38;3.87;;;1.70;;
71836;SDS011;59686;51.716;7.016;2022-12-29T14:58:14;6.50;;;1.80;;
71836;SDS011;59686;51.716;7.016;2022-12-29T15:00:46;6.00;;;1.97;;
71836;SDS011;59686;51.716;7.016;2022-12-29T15:03:29;6.00;;;2.20;;
71836;SDS011;59686;51.716;7.016;2022-12-29T15:06:06;4.23;;;1.53;;
71836;SDS011;59686;51.716;7.016;2022-12-29T15:08:37;6.17;;;1.50;;
71836;SDS011;59686;51.716;7.016;2022-12-29T15:11:13;5.30;;;1.90;;
71836;SDS011;59686;51.716;7.016;2022-12-29T15:13:43;7.90;;;1.63;;
71836;SDS011;59686;51.716;7.016;2022-12-29T15:16:24;7.13;;;1.97;;
71836;SDS011;59686;51.716;7.016;2022-12-29T15:18:51;7.07;;;1.60;;
71836;SDS011;59686;51.716;7.016;2022-12-29T15:21:19;8.23;;;1.70;;
71836;SDS011;59686;51.716;7.016;2022-12-29T15:23:51;2.93;;;1.43;;
71836;SDS011;59686;51.716;7.016;2022-12-29T15:26:18;6.93;;;1.40;;
71836;SDS011;59686;51.716;7.016;2022-12-29T15:28:48;6.10;;;1.60;;
71836;SDS011;59686;51.716;7.016;2022-12-29T15:31:18;7.83;;;1.80;;
71836;SDS011;59686;51.716;7.016;2022-12-29T15:33:53;5.93;;;1.60;;
71836;SDS011;59686;51.716;7.016;2022-12-29T15:36:21;8.37;;;1.60;;
71836;SDS011;59686;51.716;7.016;2022-12-29T15:38:50;6.00;;;1.70;;
71836;SDS011;59686;51.716;7.016;2022-12-29T15:41:31;5.90;;;1.80;;
71836;SDS011;59686;51.716;7.016;2022-12-29T15:47:27;5.27;;;1.60;;
71836;SDS011;59686;51.716;7.016;2022-12-29T15:50:02;4.43;;;1.60;;
71836;SDS011;59686;51.716;7.016;2022-12-29T15:55:20;7.77;;;2.70;;
71836;SDS011;59686;51.716;7.016;2022-12-29T15:58:01;8.80;;;3.50;;
71836;SDS011;59686;51.716;7.016;2022-12-29T16:03:14;7.43;;;3.37;;
71836;SDS011;59686;51.716;7.016;2022-12-29T16:05:41;9.27;;;3.20;;
71836;SDS011;59686;51.716;7.016;2022-12-29T16:08:20;6.30;;;3.00;;
71836;SDS011;59686;51.716;7.016;2022-12-29T16:10:50;3.63;;;2.17;;
71836;SDS011;59686;51.716;7.016;2022-12-29T16:13:19;3.83;;;2.50;;
71836;SDS011;59686;51.716;7.016;2022-12-29T16:16:00;6.20;;;2.40;;
71836;SDS011;59686;51.716;7.016;2022-12-29T16:18:34;7.37;;;2.23;;
71836;SDS011;59686;51.716;7.016;2022-12-29T16:21:02;7.43;;;2.30;;
71836;SDS011;59686;51.716;7.016;2022-12-29T16:23:30;7.17;;;2.40;;
71836;SDS011;59686;51.716;7.016;2022-12-29T16:25:57;5.33;;;2.27;;
71836;SDS011;59686;51.716;7.016;2022-12-29T16:28:46;5.00;;;2.10;;
71836;SDS011;59686;51.716;7.016;2022-12-29T16:31:17;7.23;;;2.47;;
71836;SDS011;59686;51.716;7.016;2022-12-29T16:33:48;5.03;;;2.17;;
71836;SDS011;59686;51.716;7.016;2022-12-29T16:38:48;6.73;;;2.17;;
71836;SDS011;59686;51.716;7.016;2022-12-29T16:41:27;5.63;;;1.90;;
71836;SDS011;59686;51.716;7.016;2022-12-29T16:49:32;5.63;;;2.17;;
71836;SDS011;59686;51.716;7.016;2022-12-29T16:52:09;7.00;;;1.97;;
71836;SDS011;59686;51.716;7.016;2022-12-29T16:54:43;6.17;;;2.13;;
71836;SDS011;59686;51.716;7.016;2022-12-29T16:57:33;5.30;;;1.97;;
71836;SDS011;59686;51.716;7.016;2022-12-29T17:00:03;5.70;;;1.80;;
71836;SDS011;59686;51.716;7.016;2022-12-29T17:02:33;5.97;;;1.80;;
71836;SDS011;59686;51.716;7.016;2022-12-29T17:05:12;5.47;;;1.53;;
71836;SDS011;59686;51.716;7.016;2022-12-29T17:07:38;6.10;;;1.80;;
71836;SDS011;59686;51.716;7.016;2022-12-29T17:10:05;6.20;;;1.93;;
71836;SDS011;59686;51.716;7.016;2022-12-29T17:12:30;6.43;;;2.13;;
71836;SDS011;59686;51.716;7.016;2022-12-29T17:17:35;5.30;;;2.10;;
71836;SDS011;59686;51.716;7.016;2022-12-29T17:20:08;5.20;;;2.10;;
71836;SDS011;59686;51.716;7.016;2022-12-29T17:22:53;4.77;;;1.83;;
71836;SDS011;59686;51.716;7.016;2022-12-29T17:25:20;6.93;;;1.70;;
71836;SDS011;59686;51.716;7.016;2022-12-29T17:27:58;5.27;;;1.80;;
71836;SDS011;59686;51.716;7.016;2022-12-29T17:30:29;6.93;;;2.00;;
71836;SDS011;59686;51.716;7.016;2022-12-29T17:33:09;6.73;;;2.10;;
71836;SDS011;59686;51.716;7.016;2022-12-29T17:35:38;4.70;;;1.87;;
71836;SDS011;59686;51.716;7.016;2022-12-29T17:38:18;3.73;;;1.50;;
71836;SDS011;59686;51.716;7.016;2022-12-29T17:40:45;3.93;;;1.60;;
71836;SDS011;59686;51.716;7.016;2022-12-29T17:43:12;8.23;;;2.27;;
71836;SDS011;59686;51.716;7.016;2022-12-29T17:45:39;5.77;;;1.60;;
71836;SDS011;59686;51.716;7.016;2022-12-29T17:48:14;4.77;;;1.53;;
71836;SDS011;59686;51.716;7.016;2022-12-29T17:50:41;2.77;;;1.70;;
71836;SDS011;59686;51.716;7.016;2022-12-29T17:53:20;4.67;;;1.60;;
71836;SDS011;59686;51.716;7.016;2022-12-29T17:55:48;3.17;;;1.30;;
71836;SDS011;59686;51.716;7.016;2022-12-29T17:58:24;4.63;;;1.20;;
71836;SDS011;59686;51.716;7.016;2022-12-29T18:00:54;4.00;;;1.50;;
71836;SDS011;59686;51.716;7.016;2022-12-29T18:03:36;2.53;;;1.20;;
71836;SDS011;59686;51.716;7.016;2022-12-29T18:06:04;3.90;;;1.60;;
71836;SDS011;59686;51.716;7.016;2022-12-29T18:08:35;2.93;;;1.30;;